Time;durP1;ratioP1;P1;durP2;ratioP2;P2;SDS_P1;SDS_P2;PMS_P1;PMS_P2;Temp;Humidity;BMP_temperature;BMP_pressure;BME280_temperature;BME280_humidity;BME280_pressure;Samples;Min_cycle;Max_cycle;Signal;HPM_P1;HPM_P2
2021/09/15 00:00:44;;;;;;;13.60;7.00;;;;;;;17.74;100.00;97690.16;5075214;28;20054;-79
2021/09/15 00:03:11;;;;;;;12.65;6.88;;;;;;;17.73;100.00;97688.56;5075334;28;20113;-81
2021/09/15 00:05:38;;;;;;;9.60;6.90;;;;;;;17.77;100.00;97683.97;5075131;28;20045;-81
2021/09/15 00:08:04;;;;;;;10.55;7.68;;;;;;;17.75;100.00;97674.53;5075461;28;20051;-80
2021/09/15 00:10:31;;;;;;;8.38;6.65;;;;;;;17.76;100.00;97678.81;5074975;28;20048;-80
2021/09/15 00:12:57;;;;;;;10.15;7.45;;;;;;;17.72;100.00;97680.72;5074722;28;20070;-81
2021/09/15 00:15:25;;;;;;;15.73;8.10;;;;;;;17.78;100.00;97684.75;5074806;28;20037;-80
2021/09/15 00:17:51;;;;;;;10.80;7.47;;;;;;;17.65;100.00;97662.19;5074439;28;20059;-81
2021/09/15 00:20:18;;;;;;;9.85;6.95;;;;;;;17.66;100.00;97663.78;5075155;28;20052;-81
2021/09/15 00:22:45;;;;;;;8.65;7.10;;;;;;;17.69;100.00;97663.06;5101264;22;20900;-79
2021/09/15 00:25:12;;;;;;;8.15;6.25;;;;;;;17.67;100.00;97662.63;5039394;28;20402;-79
2021/09/15 00:27:38;;;;;;;10.30;6.90;;;;;;;17.67;100.00;97664.56;5038369;28;20127;-79
2021/09/15 00:30:06;;;;;;;13.77;8.20;;;;;;;17.68;100.00;97664.19;5037761;28;20406;-79
2021/09/15 00:32:33;;;;;;;13.90;8.25;;;;;;;17.67;100.00;97659.09;5055430;28;20045;-80
2021/09/15 00:35:00;;;;;;;9.82;8.57;;;;;;;17.73;100.00;97669.38;5055120;28;20405;-80
2021/09/15 00:37:27;;;;;;;11.25;7.47;;;;;;;17.76;100.00;97657.72;5054730;28;20301;-81
2021/09/15 00:39:54;;;;;;;23.42;8.18;;;;;;;17.82;100.00;97655.47;5030330;28;20045;-80
2021/09/15 00:42:20;;;;;;;11.75;8.25;;;;;;;17.81;100.00;97653.88;5035629;28;20412;-80
2021/09/15 00:44:47;;;;;;;11.23;8.30;;;;;;;17.83;100.00;97662.56;5019381;28;20040;-79
2021/09/15 00:47:13;;;;;;;10.55;9.45;;;;;;;17.92;100.00;97652.94;5034858;28;20033;-80
2021/09/15 00:49:40;;;;;;;9.93;8.02;;;;;;;17.98;100.00;97654.25;5052726;28;20048;-80
2021/09/15 00:52:07;;;;;;;9.98;8.85;;;;;;;17.99;100.00;97635.84;5035049;28;20084;-81
2021/09/15 00:54:34;;;;;;;12.10;9.13;;;;;;;17.99;100.00;97649.53;5053952;28;20379;-79
2021/09/15 00:57:00;;;;;;;9.57;8.48;;;;;;;17.95;100.00;97640.47;5054692;28;20056;-79
2021/09/15 00:59:27;;;;;;;11.35;8.63;;;;;;;17.91;100.00;97648.63;5035310;28;20099;-78
2021/09/15 01:01:53;;;;;;;14.18;9.95;;;;;;;17.94;100.00;97655.31;5035195;28;20044;-79
2021/09/15 01:04:20;;;;;;;11.32;10.23;;;;;;;17.82;100.00;97650.81;5051335;28;20044;-79
2021/09/15 01:06:48;;;;;;;12.50;9.95;;;;;;;17.89;100.00;97650.94;5052429;28;20067;-79
2021/09/15 01:09:15;;;;;;;10.05;9.13;;;;;;;17.90;100.00;97649.00;5035507;28;20456;-79
2021/09/15 01:11:42;;;;;;;11.38;10.15;;;;;;;17.90;100.00;97644.31;5052926;28;20052;-79
2021/09/15 01:14:10;;;;;;;11.10;9.98;;;;;;;17.92;100.00;97652.94;5052407;28;20053;-79
2021/09/15 01:16:58;;;;;;;13.80;11.10;;;;;;;18.36;100.00;97650.63;5052215;28;20455;-79
2021/09/15 01:19:26;;;;;;;12.73;10.27;;;;;;;18.30;100.00;97641.13;5051730;28;20045;-79
2021/09/15 01:22:00;;;;;;;15.65;11.02;;;;;;;18.42;100.00;97649.19;5034373;28;20220;-79
2021/09/15 01:24:31;;;;;;;11.77;10.70;;;;;;;18.35;100.00;97643.56;5051970;28;20053;-78
2021/09/15 01:26:58;;;;;;;14.30;10.48;;;;;;;18.44;100.00;97640.59;5033995;28;20130;-79
2021/09/15 01:29:31;;;;;;;11.98;10.82;;;;;;;18.45;100.00;97645.69;5032531;28;20524;-80
2021/09/15 01:32:01;;;;;;;10.63;9.38;;;;;;;18.50;100.00;97642.69;5032902;28;20045;-79
2021/09/15 01:34:31;;;;;;;12.60;10.88;;;;;;;18.52;100.00;97648.59;5051156;28;20048;-78
2021/09/15 01:36:58;;;;;;;13.80;12.32;;;;;;;18.51;100.00;97636.03;5052432;28;20055;-79
2021/09/15 01:39:24;;;;;;;15.02;11.65;;;;;;;18.28;100.00;97631.69;5051943;28;20045;-78
2021/09/15 01:41:51;;;;;;;14.57;11.07;;;;;;;18.45;100.00;97631.22;5052234;28;20044;-79
2021/09/15 01:44:18;;;;;;;10.60;8.32;;;;;;;18.22;100.00;97642.16;5053227;28;20048;-79
2021/09/15 01:46:45;;;;;;;10.13;7.75;;;;;;;18.30;100.00;97624.69;5036510;28;20041;-80
2021/09/15 01:49:11;;;;;;;6.95;5.30;;;;;;;18.52;100.00;97640.38;5054761;28;20052;-81
2021/09/15 01:51:41;;;;;;;9.10;5.70;;;;;;;18.59;100.00;97643.22;5055586;28;20155;-80
2021/09/15 01:54:08;;;;;;;7.82;5.40;;;;;;;18.61;100.00;97634.63;5055188;28;20046;-80
2021/09/15 01:56:34;;;;;;;11.90;5.50;;;;;;;18.70;100.00;97631.66;5055327;28;20045;-80
2021/09/15 01:59:01;;;;;;;8.65;5.55;;;;;;;18.16;100.00;97632.66;5052634;28;20045;-79
2021/09/15 02:01:27;;;;;;;14.48;5.78;;;;;;;18.12;100.00;97631.03;5052204;28;20152;-79
2021/09/15 02:03:54;;;;;;;11.02;5.43;;;;;;;18.16;100.00;97615.44;5033681;28;20045;-78
2021/09/15 02:06:20;;;;;;;12.02;5.55;;;;;;;18.15;100.00;97614.63;5050909;28;20048;-79
2021/09/15 02:08:47;;;;;;;6.85;5.30;;;;;;;18.17;100.00;97617.03;5052534;28;20106;-79
2021/09/15 02:11:14;;;;;;;10.68;5.82;;;;;;;18.19;100.00;97611.97;5055440;28;20041;-79
2021/09/15 02:13:40;;;;;;;9.95;5.47;;;;;;;18.20;100.00;97614.31;5036385;28;20393;-79
2021/09/15 02:16:07;;;;;;;8.60;6.00;;;;;;;18.22;100.00;97606.53;5054348;28;20124;-81
2021/09/15 02:18:33;;;;;;;10.98;5.53;;;;;;;18.13;100.00;97603.25;5036209;28;20098;-80
2021/09/15 02:21:00;;;;;;;9.20;5.88;;;;;;;18.13;100.00;97599.72;5020852;28;20061;-79
2021/09/15 02:23:27;;;;;;;9.55;5.55;;;;;;;18.08;100.00;97595.31;5054429;28;20074;-79
2021/09/15 02:25:53;;;;;;;8.95;5.88;;;;;;;18.13;100.00;97599.72;5037063;28;20049;-80
2021/09/15 02:28:20;;;;;;;9.48;5.75;;;;;;;18.10;100.00;97601.22;5055631;28;20068;-80
2021/09/15 02:30:46;;;;;;;6.80;5.55;;;;;;;18.12;100.00;97593.44;5020700;28;20410;-79
2021/09/15 02:33:13;;;;;;;8.70;5.78;;;;;;;18.02;100.00;97602.25;5053879;28;20052;-80
2021/09/15 02:35:39;;;;;;;8.65;5.20;;;;;;;18.04;100.00;97598.00;5035985;28;20481;-80
2021/09/15 02:38:06;;;;;;;8.20;5.32;;;;;;;18.07;100.00;97592.97;5055956;28;20048;-79
2021/09/15 02:40:32;;;;;;;10.38;5.70;;;;;;;18.03;100.00;97598.38;5038774;28;20072;-79
2021/09/15 02:42:59;;;;;;;14.38;5.50;;;;;;;17.99;100.00;97603.78;5057484;28;20037;-79
2021/09/15 02:45:26;;;;;;;8.48;5.72;;;;;;;18.02;100.00;97588.56;5059215;28;20037;-79
2021/09/15 02:47:52;;;;;;;9.10;5.78;;;;;;;18.07;100.00;97587.47;5063047;28;20037;-80
2021/09/15 02:50:19;;;;;;;10.40;5.72;;;;;;;18.33;100.00;97585.56;5059753;28;20049;-79
2021/09/15 02:52:46;;;;;;;8.20;5.22;;;;;;;18.38;100.00;97581.72;5053538;28;20063;-79
2021/09/15 02:55:13;;;;;;;9.43;5.95;;;;;;;18.39;100.00;97595.09;5037680;28;20051;-79
2021/09/15 02:57:39;;;;;;;8.07;5.78;;;;;;;18.47;100.00;97582.31;5054337;28;20051;-78
2021/09/15 03:00:08;;;;;;;8.02;5.70;;;;;;;18.65;100.00;97586.94;5055162;28;20050;-79
2021/09/15 03:02:35;;;;;;;9.45;5.32;;;;;;;18.49;100.00;97593.69;5036526;28;20041;-79
2021/09/15 03:05:03;;;;;;;7.95;5.60;;;;;;;18.43;100.00;97584.97;5036851;28;20103;-80
2021/09/15 03:07:29;;;;;;;11.18;5.32;;;;;;;18.38;100.00;97584.47;5038129;28;20376;-78
2021/09/15 03:09:56;;;;;;;10.32;5.15;;;;;;;18.34;100.00;97583.63;5038439;28;20040;-79
2021/09/15 03:12:22;;;;;;;9.93;4.90;;;;;;;18.53;100.00;97580.84;5055330;28;20052;-79
2021/09/15 03:14:49;;;;;;;8.85;5.07;;;;;;;18.60;100.00;97584.50;5055265;28;20217;-79
2021/09/15 03:17:16;;;;;;;9.43;5.28;;;;;;;18.60;100.00;97579.03;5054973;28;20045;-79
2021/09/15 03:19:42;;;;;;;11.57;5.35;;;;;;;18.57;100.00;97577.00;5035889;28;20060;-78
2021/09/15 03:22:09;;;;;;;9.50;5.55;;;;;;;18.49;100.00;97582.72;5037660;28;20127;-79
2021/09/15 03:24:36;;;;;;;7.85;5.82;;;;;;;18.49;100.00;97572.56;5056356;28;20037;-80
2021/09/15 03:27:03;;;;;;;10.63;5.60;;;;;;;18.41;100.00;97579.06;5056122;28;20037;-80
2021/09/15 03:29:31;;;;;;;11.48;5.72;;;;;;;18.41;100.00;97576.31;5056244;28;20055;-80
2021/09/15 03:31:58;;;;;;;12.73;5.30;;;;;;;18.37;100.00;97572.75;5054268;28;20077;-79
2021/09/15 03:34:24;;;;;;;8.43;5.70;;;;;;;18.37;100.00;97564.53;5054692;28;20041;-80
2021/09/15 03:36:52;;;;;;;8.27;5.20;;;;;;;18.28;100.00;97568.66;5054986;28;20132;-79
2021/09/15 03:39:18;;;;;;;8.98;5.50;;;;;;;18.23;100.00;97560.72;5054657;28;20048;-79
2021/09/15 03:41:46;;;;;;;13.90;6.00;;;;;;;18.27;100.00;97556.13;5036795;28;20052;-79
2021/09/15 03:44:12;;;;;;;11.02;5.82;;;;;;;18.31;100.00;97549.53;5055194;28;20468;-79
2021/09/15 03:46:40;;;;;;;8.38;5.90;;;;;;;18.23;100.00;97553.31;5021247;28;20571;-80
2021/09/15 03:49:06;;;;;;;9.82;6.22;;;;;;;18.29;100.00;97549.13;5054997;28;20045;-80
2021/09/15 03:51:33;;;;;;;9.18;5.53;;;;;;;18.27;100.00;97562.38;5055477;28;20071;-79
2021/09/15 03:54:00;;;;;;;10.15;5.70;;;;;;;18.19;100.00;97543.44;5038188;28;20047;-79
2021/09/15 03:56:33;;;;;;;9.85;5.78;;;;;;;18.12;100.00;97535.88;5056170;28;20049;-80
2021/09/15 03:58:59;;;;;;;11.80;6.18;;;;;;;17.99;100.00;97539.97;5056415;28;20045;-80
2021/09/15 04:01:27;;;;;;;8.23;5.95;;;;;;;17.95;100.00;97550.88;5055897;28;20051;-79
2021/09/15 04:03:53;;;;;;;9.73;6.13;;;;;;;17.95;100.00;97550.88;5059035;28;20067;-79
2021/09/15 04:06:20;;;;;;;12.13;5.95;;;;;;;17.78;100.00;97548.59;5042966;28;20165;-79
2021/09/15 04:08:47;;;;;;;10.85;6.00;;;;;;;17.70;100.00;97544.19;5027148;28;20044;-80
2021/09/15 04:11:13;;;;;;;8.80;5.75;;;;;;;17.91;100.00;97543.75;5059686;28;20047;-80
2021/09/15 04:13:40;;;;;;;8.73;5.57;;;;;;;17.87;100.00;97546.44;5044634;28;20090;-79
2021/09/15 04:16:07;;;;;;;11.18;5.93;;;;;;;17.90;100.00;97545.72;5037102;28;20048;-80
2021/09/15 04:18:34;;;;;;;9.27;6.45;;;;;;;17.90;100.00;97542.19;5020089;28;20098;-79
2021/09/15 04:21:00;;;;;;;9.00;5.15;;;;;;;17.92;100.00;97542.59;5036415;28;20060;-78
2021/09/15 04:23:32;;;;;;;8.73;5.78;;;;;;;17.85;100.00;97529.59;5053933;28;20064;-83
2021/09/15 04:31:32;;;;;;;9.85;5.70;;;;;;;17.69;100.00;97531.63;5045062;28;20056;-84
2021/09/15 04:34:03;;;;;;;8.95;5.45;;;;;;;17.76;100.00;97530.94;5029148;28;20079;-85
2021/09/15 04:36:30;;;;;;;7.95;5.35;;;;;;;17.70;100.00;97513.25;5043690;28;20048;-85
2021/09/15 04:38:58;;;;;;;8.48;5.57;;;;;;;17.74;100.00;97520.38;5027372;28;20044;-84
2021/09/15 04:41:32;;;;;;;13.43;6.10;;;;;;;17.63;100.00;97526.78;5047799;28;20106;-85
2021/09/15 04:43:59;;;;;;;9.70;5.82;;;;;;;17.89;100.00;97513.19;5048732;28;20045;-85
2021/09/15 04:46:25;;;;;;;10.60;5.68;;;;;;;17.95;100.00;97528.16;5050128;28;20224;-85
2021/09/15 04:48:52;;;;;;;10.27;5.70;;;;;;;18.02;100.00;97515.38;5069694;28;20045;-83
2021/09/15 04:51:19;;;;;;;10.82;6.30;;;;;;;18.02;100.00;97500.88;5075217;28;20032;-84
2021/09/15 04:53:45;;;;;;;10.10;5.97;;;;;;;17.88;100.00;97522.59;5054997;28;20132;-85
2021/09/15 04:56:12;;;;;;;9.18;6.10;;;;;;;17.90;100.00;97521.06;5038378;28;20040;-84
2021/09/15 04:58:39;;;;;;;8.32;5.55;;;;;;;18.01;100.00;97518.50;5052068;28;20044;-85
2021/09/15 05:01:06;;;;;;;11.75;5.60;;;;;;;18.02;100.00;97518.13;5069037;28;20075;-85
2021/09/15 05:03:33;;;;;;;12.05;5.82;;;;;;;18.01;100.00;97508.31;5068779;28;20101;-80
2021/09/15 05:06:01;;;;;;;9.90;6.10;;;;;;;18.08;100.00;97528.78;5036129;28;20045;-81
2021/09/15 05:08:29;;;;;;;9.82;6.15;;;;;;;18.00;100.00;97505.94;5036630;28;20417;-80
2021/09/15 05:10:55;;;;;;;8.82;6.22;;;;;;;18.15;100.00;97523.41;5054310;28;20041;-79
2021/09/15 05:13:22;;;;;;;11.65;6.50;;;;;;;18.05;100.00;97524.81;5054436;28;20059;-80
2021/09/15 05:15:49;;;;;;;9.13;5.90;;;;;;;18.17;100.00;97510.91;5053535;28;20060;-79
2021/09/15 05:18:15;;;;;;;10.05;5.93;;;;;;;18.21;100.00;97511.78;5035681;28;20055;-79
2021/09/15 05:20:42;;;;;;;11.38;5.97;;;;;;;18.20;100.00;97514.88;5053218;28;20291;-79
2021/09/15 05:23:09;;;;;;;9.82;5.90;;;;;;;18.29;100.00;97518.97;5035403;28;20048;-79
2021/09/15 05:25:38;;;;;;;9.98;5.82;;;;;;;18.33;100.00;97517.06;5054751;28;20048;-80
2021/09/15 05:28:05;;;;;;;14.05;6.60;;;;;;;18.20;100.00;97521.16;5056021;28;20041;-79
2021/09/15 05:30:31;;;;;;;8.93;5.95;;;;;;;18.29;100.00;97518.97;5056194;28;20036;-80
2021/09/15 05:32:58;;;;;;;10.63;5.40;;;;;;;18.54;100.00;97516.63;5038910;28;20255;-80
2021/09/15 05:35:25;;;;;;;11.02;5.55;;;;;;;18.52;100.00;97524.44;5057068;28;20036;-80
2021/09/15 05:37:51;;;;;;;13.38;5.60;;;;;;;18.52;100.00;97527.16;5055768;28;20450;-80
2021/09/15 05:40:18;;;;;;;9.48;6.10;;;;;;;18.53;100.00;97513.09;5037028;28;20097;-80
2021/09/15 05:42:44;;;;;;;9.82;5.80;;;;;;;18.47;100.00;97535.72;5056368;28;20040;-80
2021/09/15 05:45:11;;;;;;;9.57;5.60;;;;;;;18.43;100.00;97523.84;5039029;28;20048;-79
2021/09/15 05:47:37;;;;;;;9.13;5.63;;;;;;;18.54;100.00;97530.34;5056030;28;20095;-80
2021/09/15 05:50:04;;;;;;;8.77;5.97;;;;;;;18.55;100.00;97538.19;5055398;28;20060;-80
2021/09/15 05:52:31;;;;;;;14.35;5.57;;;;;;;18.36;100.00;97526.50;5037299;28;20044;-79
2021/09/15 05:54:58;;;;;;;14.68;5.70;;;;;;;18.38;100.00;97532.41;5055053;28;20072;-80
2021/09/15 05:57:25;;;;;;;13.27;5.95;;;;;;;18.46;100.00;97534.09;5036855;28;20053;-80
2021/09/15 05:59:51;;;;;;;11.05;5.63;;;;;;;18.50;100.00;97537.72;5054780;28;20422;-79
2021/09/15 06:02:18;;;;;;;11.82;5.60;;;;;;;18.60;100.00;97529.66;5036932;28;20178;-80
2021/09/15 06:04:44;;;;;;;13.45;5.78;;;;;;;18.67;100.00;97531.69;5036313;28;20076;-79
2021/09/15 06:07:11;;;;;;;8.85;5.15;;;;;;;18.60;100.00;97539.84;5054751;28;20053;-79
2021/09/15 06:09:37;;;;;;;9.43;5.57;;;;;;;18.79;100.00;97536.19;5054045;28;20048;-80
2021/09/15 06:12:04;;;;;;;11.00;5.82;;;;;;;18.96;100.00;97546.59;5037909;28;20096;-79
2021/09/15 06:14:31;;;;;;;10.68;5.35;;;;;;;19.10;100.00;97541.28;5036452;28;20040;-80
2021/09/15 06:16:58;;;;;;;8.00;5.28;;;;;;;19.08;100.00;97538.94;5053778;28;20059;-79
2021/09/15 06:19:24;;;;;;;8.27;5.30;;;;;;;19.23;100.00;97540.69;5036603;28;20052;-79
2021/09/15 06:21:51;;;;;;;9.68;5.40;;;;;;;19.38;100.00;97538.16;5053859;28;20041;-79
2021/09/15 06:24:18;;;;;;;9.00;5.30;;;;;;;19.50;100.00;97533.19;5054402;22;20068;-87
2021/09/15 06:26:48;;;;;;;10.43;5.43;;;;;;;19.51;100.00;97523.78;5027281;28;20045;-86
2021/09/15 06:29:15;;;;;;;14.13;6.00;;;;;;;19.71;100.00;97527.94;4992599;28;20451;-86
2021/09/15 06:31:43;;;;;;;12.85;8.63;;;;;;;19.82;100.00;97531.56;5025548;28;20054;-86
2021/09/15 06:34:11;;;;;;;11.45;6.15;;;;;;;19.83;100.00;97524.91;5009132;28;20042;-87
2021/09/15 06:36:39;;;;;;;11.02;5.45;;;;;;;19.85;100.00;97525.31;5009565;28;20446;-86
2021/09/15 06:39:09;;;;;;;11.88;5.05;;;;;;;19.76;100.00;97513.88;4993515;28;20067;-87
2021/09/15 06:41:36;;;;;;;9.02;4.85;;;;;;;20.06;100.00;97519.22;5028470;28;20144;-86
2021/09/15 06:44:03;;;;;;;13.88;7.07;;;;;;;20.00;100.00;97511.72;5009448;28;20045;-86
2021/09/15 06:46:30;;;;;;;15.35;7.85;;;;;;;20.13;100.00;97502.03;5026880;28;20486;-87
2021/09/15 06:49:00;;;;;;;10.43;5.32;;;;;;;20.26;100.00;97498.63;5009818;28;20155;-85
2021/09/15 06:51:27;;;;;;;9.38;4.47;;;;;;;20.76;100.00;97507.22;5027249;28;20049;-87
2021/09/15 06:53:53;;;;;;;11.27;4.80;;;;;;;21.24;100.00;97513.38;5030278;28;20030;-87
2021/09/15 06:56:20;;;;;;;17.58;4.72;;;;;;;21.32;100.00;97501.22;5034192;28;20534;-87
2021/09/15 06:58:47;;;;;;;12.63;5.07;;;;;;;21.33;100.00;97500.81;5039417;28;20112;-87
2021/09/15 07:01:14;;;;;;;11.98;4.80;;;;;;;21.38;100.00;97505.16;5022454;28;20046;-87
2021/09/15 07:03:43;;;;;;;9.15;4.50;;;;;;;21.73;100.00;97505.28;5004808;28;20046;-86
2021/09/15 07:06:10;;;;;;;8.95;4.80;;;;;;;21.70;100.00;97482.00;5037135;28;20041;-86
2021/09/15 07:08:36;;;;;;;10.88;4.47;;;;;;;21.95;100.00;97501.38;5036736;28;20073;-87
2021/09/15 07:11:03;;;;;;;11.73;4.60;;;;;;;21.43;100.00;97491.00;5012844;28;20117;-87
2021/09/15 07:13:31;;;;;;;11.55;4.75;;;;;;;21.26;100.00;97481.53;5031881;28;20052;-87
2021/09/15 07:15:58;;;;;;;9.05;4.63;;;;;;;21.39;100.00;97491.03;5030946;28;20041;-86
2021/09/15 07:18:28;;;;;;;17.00;5.25;;;;;;;21.58;100.00;97509.94;5031364;28;20037;-87
2021/09/15 07:20:55;;;;;;;8.10;4.75;;;;;;;21.64;100.00;97477.28;5032650;28;20049;-87
2021/09/15 07:23:22;;;;;;;9.38;5.15;;;;;;;21.71;100.00;97499.34;5032925;28;20125;-86
2021/09/15 07:25:49;;;;;;;7.72;4.93;;;;;;;22.13;100.00;97507.72;5033078;28;20532;-88
2021/09/15 07:28:16;;;;;;;16.52;5.32;;;;;;;22.34;100.00;97502.19;5031739;28;20049;-88
2021/09/15 07:30:46;;;;;;;9.85;5.13;;;;;;;22.54;100.00;97507.28;5018503;28;20076;-86
2021/09/15 07:33:14;;;;;;;10.20;5.10;;;;;;;22.74;100.00;97494.66;5013378;28;20045;-87
2021/09/15 07:35:42;;;;;;;9.85;4.10;;;;;;;22.99;100.00;97498.16;5015119;28;20094;-86
2021/09/15 07:38:09;;;;;;;8.32;4.28;;;;;;;23.21;100.00;97505.16;5015659;28;20052;-86
2021/09/15 07:40:39;;;;;;;8.27;4.15;;;;;;;23.31;100.00;97501.56;5030915;28;20308;-87
2021/09/15 07:43:06;;;;;;;10.77;4.20;;;;;;;23.30;100.00;97491.72;5029614;28;20510;-86
2021/09/15 07:45:33;;;;;;;10.65;4.43;;;;;;;23.42;100.00;97491.31;5030389;28;20117;-86
2021/09/15 07:48:03;;;;;;;10.23;4.30;;;;;;;23.34;100.00;97494.47;4995183;28;20794;-86
2021/09/15 07:50:30;;;;;;;14.00;4.65;;;;;;;23.37;100.00;97494.47;4995520;28;20185;-88
2021/09/15 07:53:00;;;;;;;14.55;8.65;;;;;;;23.56;100.00;97504.25;5012032;28;20474;-87
2021/09/15 07:55:53;;;;;;;13.20;7.25;;;;;;;23.60;100.00;97509.75;5029268;28;20071;-87
2021/09/15 07:58:27;;;;;;;11.25;5.20;;;;;;;23.62;100.00;97505.41;5029921;28;20144;-84
2021/09/15 08:00:54;;;;;;;10.15;4.55;;;;;;;23.65;100.00;97512.09;5011536;28;20049;-87
2021/09/15 08:03:23;;;;;;;11.05;4.68;;;;;;;23.47;100.00;97487.31;5029520;28;20041;-87
2021/09/15 08:06:00;;;;;;;8.52;4.13;;;;;;;23.64;100.00;97500.25;5011951;28;20042;-88
2021/09/15 08:08:29;;;;;;;12.75;4.82;;;;;;;23.63;100.00;97529.09;5011601;28;20454;-87
2021/09/15 08:10:57;;;;;;;7.93;4.28;;;;;;;23.70;100.00;97518.00;5029630;28;20379;-86
2021/09/15 08:13:25;;;;;;;13.70;4.68;;;;;;;24.00;100.00;97528.50;5029759;28;20457;-87
2021/09/15 08:15:52;;;;;;;10.35;4.53;;;;;;;24.07;100.00;97517.38;5011757;28;20057;-87
2021/09/15 08:18:27;;;;;;;8.43;4.40;;;;;;;24.37;100.00;97527.81;5011870;28;20049;-87
2021/09/15 08:21:00;;;;;;;15.65;4.43;;;;;;;24.71;100.00;97518.44;4995878;28;20132;-87
2021/09/15 08:23:30;;;;;;;10.60;4.72;;;;;;;24.72;100.00;97514.44;5029285;28;20363;-86
2021/09/15 08:25:58;;;;;;;12.45;4.15;;;;;;;25.13;100.00;97516.44;5013318;28;20048;-86
2021/09/15 08:28:27;;;;;;;15.68;4.45;;;;;;;25.17;100.00;97520.72;5030292;28;20052;-87
2021/09/15 08:30:57;;;;;;;12.65;4.70;;;;;;;25.35;100.00;97520.50;5029352;28;20136;-87
2021/09/15 08:33:26;;;;;;;8.23;4.30;;;;;;;25.42;100.00;97503.03;5029903;28;20049;-88
2021/09/15 08:35:54;;;;;;;14.15;4.57;;;;;;;25.41;100.00;97510.53;5010969;28;20046;-88
2021/09/15 08:38:21;;;;;;;9.27;4.10;;;;;;;25.06;100.00;97505.44;5010608;28;20701;-87
2021/09/15 08:41:08;;;;;;;12.88;4.88;;;;;;;24.74;100.00;97511.28;5011944;28;20046;-88
2021/09/15 08:43:45;;;;;;;16.20;8.57;;;;;;;24.94;100.00;97517.81;5011184;28;20486;-88
2021/09/15 08:46:20;;;;;;;6.40;3.83;;;;;;;24.66;100.00;97518.06;5010152;28;20041;-87
2021/09/15 08:48:49;;;;;;;8.02;3.30;;;;;;;24.44;100.00;97508.41;5010322;28;20061;-87
2021/09/15 08:51:22;;;;;;;8.23;3.55;;;;;;;24.00;100.00;97528.50;5010045;28;20049;-86
2021/09/15 08:53:53;;;;;;;6.40;3.40;;;;;;;24.00;100.00;97514.66;5028141;28;20132;-86
2021/09/15 08:56:21;;;;;;;6.13;3.00;;;;;;;24.04;100.00;97523.69;5028995;28;20055;-86
2021/09/15 08:58:48;;;;;;;6.72;3.05;;;;;;;23.89;100.00;97514.72;5028354;28;20080;-87
2021/09/15 09:01:24;;;;;;;6.65;3.08;;;;;;;23.90;100.00;97519.03;5030460;28;20041;-86
2021/09/15 09:03:53;;;;;;;6.70;3.22;;;;;;;23.88;100.00;97510.38;5027841;28;20443;-86
2021/09/15 09:06:25;;;;;;;6.25;3.80;;;;;;;23.76;100.00;97537.72;5010010;28;20073;-87
2021/09/15 09:08:53;;;;;;;10.90;3.78;;;;;;;23.60;100.00;97538.19;5010544;28;20167;-85
2021/09/15 09:11:23;;;;;;;6.45;3.65;;;;;;;23.47;100.00;97523.25;5010910;28;20060;-86
2021/09/15 09:13:55;;;;;;;4.63;3.05;;;;;;;23.38;100.00;97531.97;5028940;28;20067;-86
2021/09/15 09:16:44;;;;;;;5.25;3.38;;;;;;;23.34;100.00;97542.22;5028168;28;20037;-86
2021/09/15 09:19:26;;;;;;;6.43;3.35;;;;;;;23.21;100.00;97521.75;5009768;28;20124;-86
2021/09/15 09:21:54;;;;;;;5.75;3.50;;;;;;;23.35;100.00;97543.81;5010050;28;20115;-86
2021/09/15 09:24:25;;;;;;;6.35;3.50;;;;;;;23.60;100.00;97542.91;5027566;28;20041;-86
2021/09/15 09:26:57;;;;;;;4.70;3.38;;;;;;;23.67;100.00;97540.91;5028003;28;20103;-85
2021/09/15 09:29:27;;;;;;;5.32;3.40;;;;;;;23.68;100.00;97516.81;5010475;28;20129;-88
2021/09/15 09:32:00;;;;;;;9.55;3.42;;;;;;;23.79;100.00;97545.19;5026619;28;20156;-87
2021/09/15 09:34:28;;;;;;;6.72;3.05;;;;;;;23.97;100.00;97543.13;5028866;28;20108;-87
2021/09/15 09:37:06;;;;;;;9.20;3.95;;;;;;;23.87;100.00;97525.41;5027990;28;20071;-88
2021/09/15 09:39:57;;;;;;;6.60;3.47;;;;;;;24.01;100.00;97530.84;5027352;28;20052;-86
2021/09/15 09:42:24;;;;;;;7.43;3.10;;;;;;;24.24;100.00;97535.84;5009988;28;20045;-87
2021/09/15 09:45:11;;;;;;;5.65;3.10;;;;;;;24.09;100.00;97512.25;5010169;28;20114;-86
2021/09/15 09:47:39;;;;;;;9.27;2.90;;;;;;;24.30;100.00;97531.44;5009326;28;20045;-88
2021/09/15 09:50:13;;;;;;;3.65;3.05;;;;;;;24.68;100.00;97526.75;5027412;28;20418;-87
2021/09/15 09:52:57;;;;;;;4.22;3.13;;;;;;;24.44;100.00;97527.78;5029606;28;20132;-85
2021/09/15 09:55:35;;;;;;;4.23;2.80;;;;;;;24.95;100.00;97529.69;5009928;28;20431;-88
2021/09/15 09:58:04;;;;;;;9.57;3.10;;;;;;;25.06;100.00;97517.28;5009580;28;20109;-85
2021/09/15 10:00:31;;;;;;;4.55;2.88;;;;;;;25.51;100.00;97525.50;5026738;28;20042;-87
2021/09/15 10:02:59;;;;;;;6.40;2.63;;;;;;;25.79;100.00;97520.34;5010192;28;20148;-87
2021/09/15 10:05:26;;;;;;;6.32;2.90;;;;;;;26.29;96.93;97514.09;5011134;28;20053;-83
2021/09/15 10:07:52;;;;;;;7.10;3.88;;;;;;;26.60;95.60;97510.78;5026637;28;20502;-87
2021/09/15 10:10:21;;;;;;;4.72;3.00;;;;;;;26.23;100.00;97521.31;5012553;28;20121;-86
2021/09/15 10:12:53;;;;;;;4.22;3.13;;;;;;;26.80;100.00;97513.63;5027116;28;20072;-85
2021/09/15 10:15:20;;;;;;;5.80;3.40;;;;;;;26.71;90.26;97518.94;5009985;28;20111;-84
2021/09/15 10:17:50;;;;;;;8.45;3.90;;;;;;;27.05;91.11;97510.38;5009012;28;20064;-85
2021/09/15 10:20:30;;;;;;;6.20;3.30;;;;;;;26.91;95.09;97499.53;5009657;28;20045;-84
2021/09/15 10:22:57;;;;;;;7.53;3.17;;;;;;;26.87;86.58;97502.38;5027269;28;20053;-87
2021/09/15 10:25:54;;;;;;;6.68;3.38;;;;;;;27.54;88.94;97497.50;5009526;28;20052;-84
2021/09/15 10:28:25;;;;;;;5.35;3.10;;;;;;;27.70;82.66;97500.31;5016157;28;20421;-82
2021/09/15 10:30:53;;;;;;;3.80;2.95;;;;;;;27.31;79.23;97506.66;5029632;28;20049;-85
2021/09/15 10:33:35;;;;;;;4.80;3.00;;;;;;;26.89;85.91;97499.19;5030588;28;20489;-84
2021/09/15 10:36:23;;;;;;;5.60;3.10;;;;;;;26.39;98.18;97496.47;5031237;28;20057;-84
2021/09/15 10:38:57;;;;;;;7.40;3.85;;;;;;;26.36;100.00;97502.88;5031022;28;20049;-85
2021/09/15 10:41:32;;;;;;;5.68;3.30;;;;;;;26.01;100.00;97493.84;5013780;28;20156;-84
2021/09/15 10:44:05;;;;;;;5.63;2.85;;;;;;;26.29;100.00;97487.13;5030287;28;20516;-84
2021/09/15 10:46:32;;;;;;;4.30;2.78;;;;;;;26.86;92.80;97486.94;5014577;28;20391;-86
2021/09/15 10:49:23;;;;;;;4.00;2.70;;;;;;;28.10;70.20;97481.53;5013455;28;20053;-84
2021/09/15 10:52:08;;;;;;;5.10;2.40;;;;;;;28.00;81.63;97490.91;5030559;28;20123;-85
2021/09/15 10:54:49;;;;;;;5.15;2.80;;;;;;;27.89;71.47;97476.44;5000961;28;20049;-85
2021/09/15 10:57:21;;;;;;;4.15;2.90;;;;;;;28.00;73.16;97469.41;5014212;28;20153;-81
2021/09/15 10:59:52;;;;;;;6.55;2.75;;;;;;;27.77;76.33;97467.53;5031606;28;20061;-85
2021/09/15 11:02:29;;;;;;;4.00;2.75;;;;;;;27.65;74.94;97473.00;5029996;28;20045;-85
2021/09/15 11:04:59;;;;;;;6.35;2.70;;;;;;;27.31;69.74;97475.31;5012645;28;20053;-87
2021/09/15 11:07:47;;;;;;;5.10;2.47;;;;;;;26.82;85.63;97479.84;5032450;28;20045;-85
2021/09/15 11:10:32;;;;;;;5.70;2.70;;;;;;;26.31;86.60;97479.16;5030712;28;20496;-86
2021/09/15 11:13:13;;;;;;;4.70;2.87;;;;;;;25.90;91.87;97479.38;5031031;28;20057;-84
2021/09/15 11:15:43;;;;;;;4.57;2.67;;;;;;;25.79;100.00;97467.66;5031452;28;20508;-85
2021/09/15 11:18:22;;;;;;;4.80;2.97;;;;;;;25.22;100.00;97484.25;5012390;28;20037;-85
2021/09/15 11:20:59;;;;;;;4.70;2.80;;;;;;;25.34;100.00;97485.69;5011643;28;20041;-87
2021/09/15 11:23:30;;;;;;;4.50;2.90;;;;;;;25.11;100.00;97483.59;5031593;28;20060;-85
2021/09/15 11:25:58;;;;;;;7.32;3.03;;;;;;;25.29;100.00;97483.38;5030132;28;20046;-85
2021/09/15 11:28:25;;;;;;;6.00;3.38;;;;;;;25.31;100.00;97480.97;5030315;28;20041;-84
2021/09/15 11:30:52;;;;;;;4.60;3.38;;;;;;;25.22;100.00;97492.56;5012514;28;20047;-85
2021/09/15 11:33:37;;;;;;;5.15;3.20;;;;;;;25.26;100.00;97489.75;5013403;28;20049;-86
2021/09/15 11:36:10;;;;;;;5.10;3.17;;;;;;;24.99;100.00;97497.97;5011762;28;20037;-86